sensor_id;sensor_type;location;lat;lon;timestamp;pressure;altitude;pressure_sealevel;temperature;humidity
81107;BME280;70588;53.172;8.620;2023-06-19T00:01:18;100894.34;;;26.94;31.80
81107;BME280;70588;53.172;8.620;2023-06-19T00:03:43;100887.13;;;26.93;31.69
81107;BME280;70588;53.172;8.620;2023-06-19T00:06:08;100891.03;;;26.92;31.71
81107;BME280;70588;53.172;8.620;2023-06-19T00:08:34;100892.16;;;26.91;31.84
81107;BME280;70588;53.172;8.620;2023-06-19T00:11:01;100889.69;;;26.90;31.93
81107;BME280;70588;53.172;8.620;2023-06-19T00:13:26;100883.31;;;26.89;31.53
81107;BME280;70588;53.172;8.620;2023-06-19T00:15:52;100873.34;;;26.88;31.31
81107;BME280;70588;53.172;8.620;2023-06-19T00:18:17;100873.69;;;26.86;31.72
81107;BME280;70588;53.172;8.620;2023-06-19T00:20:45;100870.06;;;26.86;31.40
81107;BME280;70588;53.172;8.620;2023-06-19T00:23:11;100868.44;;;26.85;31.11
81107;BME280;70588;53.172;8.620;2023-06-19T00:25:40;100867.28;;;26.86;31.08
81107;BME280;70588;53.172;8.620;2023-06-19T00:28:05;100871.50;;;26.83;31.02
81107;BME280;70588;53.172;8.620;2023-06-19T00:30:38;100862.66;;;26.81;31.29
81107;BME280;70588;53.172;8.620;2023-06-19T00:33:04;100864.63;;;26.81;31.03
81107;BME280;70588;53.172;8.620;2023-06-19T00:35:30;100859.38;;;26.79;31.38
81107;BME280;70588;53.172;8.620;2023-06-19T00:37:55;100866.03;;;26.78;31.35
81107;BME280;70588;53.172;8.620;2023-06-19T00:40:28;100862.88;;;26.85;31.21
81107;BME280;70588;53.172;8.620;2023-06-19T00:42:54;100859.13;;;26.76;31.31
81107;BME280;70588;53.172;8.620;2023-06-19T00:45:20;100855.84;;;26.74;31.60
81107;BME280;70588;53.172;8.620;2023-06-19T00:47:45;100846.22;;;26.71;31.65
81107;BME280;70588;53.172;8.620;2023-06-19T00:50:11;100845.69;;;26.69;31.50
81107;BME280;70588;53.172;8.620;2023-06-19T00:52:37;100838.81;;;26.66;31.57
81107;BME280;70588;53.172;8.620;2023-06-19T00:55:04;100842.69;;;26.65;31.65
81107;BME280;70588;53.172;8.620;2023-06-19T00:57:30;100840.81;;;26.61;31.69
81107;BME280;70588;53.172;8.620;2023-06-19T00:59:57;100841.41;;;26.58;31.88
81107;BME280;70588;53.172;8.620;2023-06-19T01:02:23;100832.56;;;26.56;31.86
81107;BME280;70588;53.172;8.620;2023-06-19T01:04:49;100827.34;;;26.54;32.21
81107;BME280;70588;53.172;8.620;2023-06-19T01:07:22;100810.41;;;26.56;31.95
81107;BME280;70588;53.172;8.620;2023-06-19T01:09:53;100812.34;;;26.55;32.06
81107;BME280;70588;53.172;8.620;2023-06-19T01:12:22;100809.97;;;26.49;32.11
81107;BME280;70588;53.172;8.620;2023-06-19T01:14:59;100811.03;;;26.53;31.99
81107;BME280;70588;53.172;8.620;2023-06-19T01:17:26;100811.47;;;26.41;32.22
81107;BME280;70588;53.172;8.620;2023-06-19T01:19:54;100809.59;;;26.36;32.33
81107;BME280;70588;53.172;8.620;2023-06-19T01:22:26;100802.88;;;26.42;32.37
81107;BME280;70588;53.172;8.620;2023-06-19T01:24:52;100805.78;;;26.32;32.30
81107;BME280;70588;53.172;8.620;2023-06-19T01:27:17;100804.13;;;26.31;32.69
81107;BME280;70588;53.172;8.620;2023-06-19T01:29:43;100809.13;;;26.29;32.55
81107;BME280;70588;53.172;8.620;2023-06-19T01:32:19;100804.28;;;26.40;32.45
81107;BME280;70588;53.172;8.620;2023-06-19T01:34:46;100805.56;;;26.29;32.65
81107;BME280;70588;53.172;8.620;2023-06-19T01:37:12;100808.91;;;26.25;32.42
81107;BME280;70588;53.172;8.620;2023-06-19T01:39:40;100802.28;;;26.26;32.83
81107;BME280;70588;53.172;8.620;2023-06-19T01:42:06;100807.56;;;26.23;32.90
81107;BME280;70588;53.172;8.620;2023-06-19T01:44:35;100806.75;;;26.22;32.80
81107;BME280;70588;53.172;8.620;2023-06-19T01:47:08;100801.13;;;26.27;32.72
81107;BME280;70588;53.172;8.620;2023-06-19T01:49:34;100793.78;;;26.18;33.14
81107;BME280;70588;53.172;8.620;2023-06-19T01:51:59;100790.50;;;26.16;33.25
81107;BME280;70588;53.172;8.620;2023-06-19T01:54:26;100784.75;;;26.12;33.39
81107;BME280;70588;53.172;8.620;2023-06-19T01:56:51;100777.84;;;26.10;33.62
81107;BME280;70588;53.172;8.620;2023-06-19T01:59:16;100774.56;;;26.07;33.83
81107;BME280;70588;53.172;8.620;2023-06-19T02:01:42;100767.69;;;26.05;33.54
81107;BME280;70588;53.172;8.620;2023-06-19T02:04:07;100767.16;;;26.03;33.76
81107;BME280;70588;53.172;8.620;2023-06-19T02:06:32;100766.66;;;26.01;33.85
81107;BME280;70588;53.172;8.620;2023-06-19T02:08:58;100758.94;;;25.98;33.96
81107;BME280;70588;53.172;8.620;2023-06-19T02:11:23;100763.13;;;25.95;33.97
81107;BME280;70588;53.172;8.620;2023-06-19T02:13:48;100767.03;;;25.94;33.97
81107;BME280;70588;53.172;8.620;2023-06-19T02:16:14;100767.59;;;25.91;34.02
81107;BME280;70588;53.172;8.620;2023-06-19T02:18:39;100762.66;;;25.88;34.07
81107;BME280;70588;53.172;8.620;2023-06-19T02:21:04;100765.72;;;25.86;33.94
81107;BME280;70588;53.172;8.620;2023-06-19T02:23:30;100759.66;;;25.84;34.28
81107;BME280;70588;53.172;8.620;2023-06-19T02:25:55;100766.28;;;25.83;33.90
81107;BME280;70588;53.172;8.620;2023-06-19T02:28:21;100761.88;;;25.82;33.95
81107;BME280;70588;53.172;8.620;2023-06-19T02:30:46;100761.34;;;25.80;34.08
81107;BME280;70588;53.172;8.620;2023-06-19T02:33:12;100758.88;;;25.79;34.16
81107;BME280;70588;53.172;8.620;2023-06-19T02:35:38;100762.75;;;25.78;34.52
81107;BME280;70588;53.172;8.620;2023-06-19T02:38:05;100768.59;;;25.76;34.26
81107;BME280;70588;53.172;8.620;2023-06-19T02:40:31;100759.47;;;25.76;34.38
81107;BME280;70588;53.172;8.620;2023-06-19T02:42:56;100759.78;;;25.74;34.57
81107;BME280;70588;53.172;8.620;2023-06-19T02:45:21;100764.47;;;25.74;34.40
81107;BME280;70588;53.172;8.620;2023-06-19T02:47:47;100754.81;;;25.71;34.31
81107;BME280;70588;53.172;8.620;2023-06-19T02:50:12;100749.31;;;25.71;34.64
81107;BME280;70588;53.172;8.620;2023-06-19T02:52:38;100746.81;;;25.70;34.53
81107;BME280;70588;53.172;8.620;2023-06-19T02:55:03;100743.25;;;25.69;34.29
81107;BME280;70588;53.172;8.620;2023-06-19T02:57:29;100749.06;;;25.67;34.59
81107;BME280;70588;53.172;8.620;2023-06-19T02:59:54;100753.78;;;25.67;34.31
81107;BME280;70588;53.172;8.620;2023-06-19T03:02:19;100756.53;;;25.67;34.44
81107;BME280;70588;53.172;8.620;2023-06-19T03:04:45;100746.28;;;25.67;34.07
81107;BME280;70588;53.172;8.620;2023-06-19T03:07:10;100757.34;;;25.67;34.20
81107;BME280;70588;53.172;8.620;2023-06-19T03:09:36;100762.06;;;25.67;33.97
81107;BME280;70588;53.172;8.620;2023-06-19T03:12:01;100751.00;;;25.67;33.82
81107;BME280;70588;53.172;8.620;2023-06-19T03:14:27;100749.91;;;25.68;33.79
81107;BME280;70588;53.172;8.620;2023-06-19T03:16:52;100747.97;;;25.68;33.75
81107;BME280;70588;53.172;8.620;2023-06-19T03:19:18;100748.78;;;25.69;33.97
81107;BME280;70588;53.172;8.620;2023-06-19T03:21:43;100747.66;;;25.70;33.76
81107;BME280;70588;53.172;8.620;2023-06-19T03:24:08;100750.97;;;25.72;33.80
81107;BME280;70588;53.172;8.620;2023-06-19T03:26:34;100748.19;;;25.72;33.63
81107;BME280;70588;53.172;8.620;2023-06-19T03:28:59;100758.66;;;25.75;33.77
81107;BME280;70588;53.172;8.620;2023-06-19T03:31:25;100752.31;;;25.75;33.76
81107;BME280;70588;53.172;8.620;2023-06-19T03:33:50;100748.72;;;25.74;33.82
81107;BME280;70588;53.172;8.620;2023-06-19T03:36:15;100755.59;;;25.77;33.67
81107;BME280;70588;53.172;8.620;2023-06-19T03:38:41;100762.75;;;25.78;33.87
81107;BME280;70588;53.172;8.620;2023-06-19T03:41:06;100764.41;;;25.79;33.88
81107;BME280;70588;53.172;8.620;2023-06-19T03:43:32;100772.41;;;25.80;34.09
81107;BME280;70588;53.172;8.620;2023-06-19T03:45:57;100763.00;;;25.81;34.23
81107;BME280;70588;53.172;8.620;2023-06-19T03:48:22;100763.50;;;25.83;34.14
81107;BME280;70588;53.172;8.620;2023-06-19T03:50:48;100767.94;;;25.84;34.49
81107;BME280;70588;53.172;8.620;2023-06-19T03:53:13;100759.66;;;25.84;34.68
81107;BME280;70588;53.172;8.620;2023-06-19T03:55:39;100764.03;;;25.85;34.73
81107;BME280;70588;53.172;8.620;2023-06-19T03:58:04;100769.56;;;25.85;34.28
81107;BME280;70588;53.172;8.620;2023-06-19T04:00:31;100770.41;;;25.86;34.42
81107;BME280;70588;53.172;8.620;2023-06-19T04:02:57;100768.75;;;25.85;34.50
81107;BME280;70588;53.172;8.620;2023-06-19T04:05:22;100769.56;;;25.85;34.96
81107;BME280;70588;53.172;8.620;2023-06-19T04:07:47;100778.19;;;25.84;34.84
81107;BME280;70588;53.172;8.620;2023-06-19T04:10:13;100776.53;;;25.83;34.95
81107;BME280;70588;53.172;8.620;2023-06-19T04:12:38;100780.41;;;25.82;35.03
81107;BME280;70588;53.172;8.620;2023-06-19T04:15:06;100772.41;;;25.80;35.05
81107;BME280;70588;53.172;8.620;2023-06-19T04:17:31;100777.09;;;25.80;34.74
81107;BME280;70588;53.172;8.620;2023-06-19T04:19:57;100777.44;;;25.78;34.96
81107;BME280;70588;53.172;8.620;2023-06-19T04:22:22;100774.13;;;25.76;34.76
81107;BME280;70588;53.172;8.620;2023-06-19T04:24:47;100771.66;;;25.75;34.73
81107;BME280;70588;53.172;8.620;2023-06-19T04:27:13;100775.53;;;25.74;34.98
81107;BME280;70588;53.172;8.620;2023-06-19T04:29:38;100775.31;;;25.70;34.80
81107;BME280;70588;53.172;8.620;2023-06-19T04:32:04;100775.31;;;25.70;34.93
81107;BME280;70588;53.172;8.620;2023-06-19T04:34:37;100781.13;;;25.68;35.02
81107;BME280;70588;53.172;8.620;2023-06-19T04:37:03;100775.88;;;25.67;34.82
81107;BME280;70588;53.172;8.620;2023-06-19T04:39:29;100773.94;;;25.67;34.84
81107;BME280;70588;53.172;8.620;2023-06-19T04:41:54;100785.84;;;25.68;35.23
81107;BME280;70588;53.172;8.620;2023-06-19T04:44:19;100775.59;;;25.68;35.02
81107;BME280;70588;53.172;8.620;2023-06-19T04:46:45;100783.59;;;25.70;35.37
81107;BME280;70588;53.172;8.620;2023-06-19T04:49:10;100775.00;;;25.72;35.46
81107;BME280;70588;53.172;8.620;2023-06-19T04:51:36;100775.84;;;25.72;35.47
81107;BME280;70588;53.172;8.620;2023-06-19T04:54:02;100779.13;;;25.74;35.21
81107;BME280;70588;53.172;8.620;2023-06-19T04:56:28;100790.19;;;25.74;35.48
81107;BME280;70588;53.172;8.620;2023-06-19T04:58:54;100785.47;;;25.75;36.21
81107;BME280;70588;53.172;8.620;2023-06-19T05:01:21;100779.66;;;25.76;36.85
81107;BME280;70588;53.172;8.620;2023-06-19T05:03:52;100778.53;;;26.01;35.51
81107;BME280;70588;53.172;8.620;2023-06-19T05:06:18;100772.41;;;25.80;37.28
81107;BME280;70588;53.172;8.620;2023-06-19T05:08:43;100777.94;;;25.80;37.19
81107;BME280;70588;53.172;8.620;2023-06-19T05:11:08;100780.19;;;25.78;37.05
81107;BME280;70588;53.172;8.620;2023-06-19T05:13:34;100778.53;;;25.77;36.97
81107;BME280;70588;53.172;8.620;2023-06-19T05:15:59;100776.56;;;25.78;37.15
81107;BME280;70588;53.172;8.620;2023-06-19T05:18:24;100781.28;;;25.77;36.66
81107;BME280;70588;53.172;8.620;2023-06-19T05:20:50;100784.34;;;25.76;36.35
81107;BME280;70588;53.172;8.620;2023-06-19T05:23:15;100787.09;;;25.76;36.58
81107;BME280;70588;53.172;8.620;2023-06-19T05:25:40;100790.72;;;25.76;36.54
81107;BME280;70588;53.172;8.620;2023-06-19T05:28:08;100782.44;;;25.76;36.54
81107;BME280;70588;53.172;8.620;2023-06-19T05:30:33;100780.19;;;25.78;36.22
81107;BME280;70588;53.172;8.620;2023-06-19T05:33:00;100790.94;;;25.80;36.30
81107;BME280;70588;53.172;8.620;2023-06-19T05:35:25;100793.66;;;25.85;36.72
81107;BME280;70588;53.172;8.620;2023-06-19T05:37:51;100790.31;;;25.88;36.21
81107;BME280;70588;53.172;8.620;2023-06-19T05:40:16;100785.00;;;25.92;36.31
81107;BME280;70588;53.172;8.620;2023-06-19T05:42:42;100783.63;;;25.94;36.14
81107;BME280;70588;53.172;8.620;2023-06-19T05:45:07;100794.34;;;25.96;36.72
81107;BME280;70588;53.172;8.620;2023-06-19T05:47:33;100792.13;;;25.98;36.30
81107;BME280;70588;53.172;8.620;2023-06-19T05:49:58;100802.59;;;26.01;36.21
81107;BME280;70588;53.172;8.620;2023-06-19T05:52:24;100803.13;;;26.03;36.66
81107;BME280;70588;53.172;8.620;2023-06-19T05:54:50;100806.66;;;26.09;36.63
81107;BME280;70588;53.172;8.620;2023-06-19T05:57:15;100795.81;;;26.12;36.91
81107;BME280;70588;53.172;8.620;2023-06-19T05:59:44;100804.03;;;26.17;36.48
81107;BME280;70588;53.172;8.620;2023-06-19T06:02:09;100800.38;;;26.22;36.47
81107;BME280;70588;53.172;8.620;2023-06-19T06:04:34;100807.28;;;26.24;36.76
81107;BME280;70588;53.172;8.620;2023-06-19T06:07:01;100810.56;;;26.26;36.43
81107;BME280;70588;53.172;8.620;2023-06-19T06:09:26;100809.44;;;26.27;36.09
81107;BME280;70588;53.172;8.620;2023-06-19T06:11:52;100806.91;;;26.31;36.04
81107;BME280;70588;53.172;8.620;2023-06-19T06:14:18;100809.38;;;26.33;36.07
81107;BME280;70588;53.172;8.620;2023-06-19T06:16:43;100804.06;;;26.36;36.08
81107;BME280;70588;53.172;8.620;2023-06-19T06:19:08;100805.03;;;26.45;36.10
81107;BME280;70588;53.172;8.620;2023-06-19T06:21:34;100815.66;;;26.57;35.78
81107;BME280;70588;53.172;8.620;2023-06-19T06:24:00;100816.78;;;26.75;36.20
81107;BME280;70588;53.172;8.620;2023-06-19T06:26:25;100829.78;;;26.94;35.73
81107;BME280;70588;53.172;8.620;2023-06-19T06:28:53;100826.69;;;27.14;34.87
81107;BME280;70588;53.172;8.620;2023-06-19T06:31:18;100833.31;;;27.32;34.75
81107;BME280;70588;53.172;8.620;2023-06-19T06:33:44;100837.47;;;27.49;34.52
81107;BME280;70588;53.172;8.620;2023-06-19T06:36:09;100844.97;;;27.62;34.97
81107;BME280;70588;53.172;8.620;2023-06-19T06:38:34;100849.19;;;27.73;34.62
81107;BME280;70588;53.172;8.620;2023-06-19T06:41:00;100848.78;;;27.80;34.39
81107;BME280;70588;53.172;8.620;2023-06-19T06:43:25;100853.41;;;27.84;34.38
81107;BME280;70588;53.172;8.620;2023-06-19T06:45:51;100863.38;;;27.85;34.13
81107;BME280;70588;53.172;8.620;2023-06-19T06:48:16;100868.91;;;27.85;34.66
81107;BME280;70588;53.172;8.620;2023-06-19T06:50:42;100860.06;;;27.83;34.58
81107;BME280;70588;53.172;8.620;2023-06-19T06:53:07;100864.28;;;27.81;34.86
81107;BME280;70588;53.172;8.620;2023-06-19T06:55:33;100867.97;;;27.76;34.98
81107;BME280;70588;53.172;8.620;2023-06-19T06:57:59;100865.81;;;27.73;35.11
81107;BME280;70588;53.172;8.620;2023-06-19T07:00:24;100865.00;;;27.73;35.59
81107;BME280;70588;53.172;8.620;2023-06-19T07:02:49;100868.38;;;27.70;35.18
81107;BME280;70588;53.172;8.620;2023-06-19T07:05:15;100867.56;;;27.69;35.57
81107;BME280;70588;53.172;8.620;2023-06-19T07:07:41;100868.69;;;27.68;35.55
81107;BME280;70588;53.172;8.620;2023-06-19T07:10:07;100867.06;;;27.67;35.94
81107;BME280;70588;53.172;8.620;2023-06-19T07:12:32;100869.53;;;27.69;35.84
81107;BME280;70588;53.172;8.620;2023-06-19T07:14:58;100871.97;;;27.70;35.83
81107;BME280;70588;53.172;8.620;2023-06-19T07:17:23;100865.81;;;27.73;36.02
81107;BME280;70588;53.172;8.620;2023-06-19T07:19:49;100864.38;;;27.76;35.55
81107;BME280;70588;53.172;8.620;2023-06-19T07:22:14;100852.91;;;27.82;35.98
81107;BME280;70588;53.172;8.620;2023-06-19T07:24:40;100862.47;;;27.90;35.67
81107;BME280;70588;53.172;8.620;2023-06-19T07:27:06;100865.38;;;27.99;35.54
81107;BME280;70588;53.172;8.620;2023-06-19T07:29:31;100857.94;;;28.08;35.98
81107;BME280;70588;53.172;8.620;2023-06-19T07:31:58;100850.25;;;28.19;35.91
81107;BME280;70588;53.172;8.620;2023-06-19T07:34:23;100857.19;;;28.30;35.67
81107;BME280;70588;53.172;8.620;2023-06-19T07:36:49;100863.38;;;28.41;35.62
81107;BME280;70588;53.172;8.620;2023-06-19T07:39:14;100859.25;;;28.52;35.18
81107;BME280;70588;53.172;8.620;2023-06-19T07:41:39;100858.19;;;28.62;34.42
81107;BME280;70588;53.172;8.620;2023-06-19T07:44:05;100858.28;;;28.71;34.66
81107;BME280;70588;53.172;8.620;2023-06-19T07:46:30;100855.56;;;28.79;34.25
81107;BME280;70588;53.172;8.620;2023-06-19T07:48:56;100868.41;;;28.89;34.58
81107;BME280;70588;53.172;8.620;2023-06-19T07:51:21;100859.00;;;28.99;34.19
81107;BME280;70588;53.172;8.620;2023-06-19T07:53:46;100852.66;;;29.07;34.24
81107;BME280;70588;53.172;8.620;2023-06-19T07:56:12;100852.25;;;29.14;33.73
81107;BME280;70588;53.172;8.620;2023-06-19T07:58:37;100854.06;;;29.18;33.74
81107;BME280;70588;53.172;8.620;2023-06-19T08:01:03;100859.50;;;29.23;33.59
81107;BME280;70588;53.172;8.620;2023-06-19T08:03:28;100858.25;;;29.30;33.51
81107;BME280;70588;53.172;8.620;2023-06-19T08:05:54;100859.25;;;29.34;33.47
81107;BME280;70588;53.172;8.620;2023-06-19T08:08:19;100865.00;;;29.37;33.40
81107;BME280;70588;53.172;8.620;2023-06-19T08:10:44;100871.25;;;29.43;33.63
81107;BME280;70588;53.172;8.620;2023-06-19T08:13:10;100859.16;;;29.48;33.56
81107;BME280;70588;53.172;8.620;2023-06-19T08:15:37;100869.00;;;29.54;33.40
81107;BME280;70588;53.172;8.620;2023-06-19T08:18:02;100871.97;;;29.57;33.64
81107;BME280;70588;53.172;8.620;2023-06-19T08:20:28;100873.16;;;29.65;33.84
81107;BME280;70588;53.172;8.620;2023-06-19T08:22:53;100869.13;;;29.71;33.60
81107;BME280;70588;53.172;8.620;2023-06-19T08:25:19;100872.59;;;29.77;33.45
81107;BME280;70588;53.172;8.620;2023-06-19T08:27:44;100875.22;;;29.82;33.75
81107;BME280;70588;53.172;8.620;2023-06-19T08:30:10;100879.19;;;29.90;33.83
81107;BME280;70588;53.172;8.620;2023-06-19T08:32:36;100871.50;;;29.95;33.83
81107;BME280;70588;53.172;8.620;2023-06-19T08:35:02;100877.41;;;30.02;33.68
81107;BME280;70588;53.172;8.620;2023-06-19T08:37:28;100882.84;;;30.08;33.67
81107;BME280;70588;53.172;8.620;2023-06-19T08:39:54;100881.06;;;30.12;33.74
81107;BME280;70588;53.172;8.620;2023-06-19T08:42:21;100875.66;;;30.15;33.56
81107;BME280;70588;53.172;8.620;2023-06-19T08:44:48;100881.38;;;30.19;33.55
81107;BME280;70588;53.172;8.620;2023-06-19T08:47:13;100884.03;;;30.24;33.40
81107;BME280;70588;53.172;8.620;2023-06-19T08:49:39;100879.13;;;30.30;33.39
81107;BME280;70588;53.172;8.620;2023-06-19T08:52:05;100878.69;;;30.36;33.28
81107;BME280;70588;53.172;8.620;2023-06-19T08:54:31;100883.78;;;30.43;33.03
81107;BME280;70588;53.172;8.620;2023-06-19T08:57:00;100879.84;;;30.53;33.13
81107;BME280;70588;53.172;8.620;2023-06-19T08:59:26;100885.41;;;30.53;33.32
81107;BME280;70588;53.172;8.620;2023-06-19T09:01:54;100885.59;;;30.56;33.12
81107;BME280;70588;53.172;8.620;2023-06-19T09:04:22;100891.03;;;30.61;32.59
81107;BME280;70588;53.172;8.620;2023-06-19T09:06:52;100898.06;;;30.68;32.69
81107;BME280;70588;53.172;8.620;2023-06-19T09:09:19;100893.97;;;30.65;32.41
81107;BME280;70588;53.172;8.620;2023-06-19T09:14:42;100899.38;;;30.79;32.47
81107;BME280;70588;53.172;8.620;2023-06-19T09:17:12;100896.44;;;30.75;32.60
81107;BME280;70588;53.172;8.620;2023-06-19T09:19:38;100899.88;;;30.72;33.07
81107;BME280;70588;53.172;8.620;2023-06-19T09:22:08;100907.41;;;30.80;32.64
81107;BME280;70588;53.172;8.620;2023-06-19T09:24:38;100907.25;;;30.86;32.39
81107;BME280;70588;53.172;8.620;2023-06-19T09:27:13;100897.94;;;30.90;32.49
81107;BME280;70588;53.172;8.620;2023-06-19T09:29:44;100894.81;;;30.92;32.51
81107;BME280;70588;53.172;8.620;2023-06-19T09:32:36;100899.25;;;31.01;32.49
81107;BME280;70588;53.172;8.620;2023-06-19T09:35:02;100903.31;;;30.87;32.87
81107;BME280;70588;53.172;8.620;2023-06-19T09:37:29;100910.25;;;30.89;32.81
81107;BME280;70588;53.172;8.620;2023-06-19T09:40:00;100904.50;;;30.94;33.09
81107;BME280;70588;53.172;8.620;2023-06-19T09:42:31;100910.22;;;30.98;33.11
81107;BME280;70588;53.172;8.620;2023-06-19T09:45:01;100909.91;;;30.99;32.89
81107;BME280;70588;53.172;8.620;2023-06-19T09:47:36;100918.09;;;31.05;33.08
81107;BME280;70588;53.172;8.620;2023-06-19T09:50:03;100923.84;;;30.99;33.21
81107;BME280;70588;53.172;8.620;2023-06-19T09:52:29;100920.88;;;30.96;32.97
81107;BME280;70588;53.172;8.620;2023-06-19T09:54:55;100926.16;;;30.97;33.11
81107;BME280;70588;53.172;8.620;2023-06-19T09:57:21;100917.78;;;30.97;32.94
81107;BME280;70588;53.172;8.620;2023-06-19T09:59:53;100929.56;;;31.03;32.81
81107;BME280;70588;53.172;8.620;2023-06-19T10:02:20;100933.84;;;31.00;32.90
81107;BME280;70588;53.172;8.620;2023-06-19T10:04:51;100935.00;;;31.08;32.66
81107;BME280;70588;53.172;8.620;2023-06-19T10:07:26;100932.38;;;31.12;32.64
81107;BME280;70588;53.172;8.620;2023-06-19T10:10:05;100933.19;;;31.12;32.75
81107;BME280;70588;53.172;8.620;2023-06-19T10:12:53;100938.09;;;31.24;32.71
81107;BME280;70588;53.172;8.620;2023-06-19T10:15:21;100946.47;;;31.15;32.99
81107;BME280;70588;53.172;8.620;2023-06-19T10:17:51;100951.88;;;31.20;33.04
81107;BME280;70588;53.172;8.620;2023-06-19T10:20:24;100951.53;;;31.31;33.30
81107;BME280;70588;53.172;8.620;2023-06-19T10:25:28;100957.28;;;31.26;33.35
81107;BME280;70588;53.172;8.620;2023-06-19T10:27:55;100962.69;;;31.22;33.11
81107;BME280;70588;53.172;8.620;2023-06-19T10:30:20;100976.31;;;31.24;33.84
81107;BME280;70588;53.172;8.620;2023-06-19T10:32:46;100976.66;;;31.22;34.30
81107;BME280;70588;53.172;8.620;2023-06-19T10:35:13;100969.91;;;31.23;33.76
81107;BME280;70588;53.172;8.620;2023-06-19T10:37:39;100962.69;;;31.22;33.96
81107;BME280;70588;53.172;8.620;2023-06-19T10:40:05;100968.59;;;31.20;34.24
81107;BME280;70588;53.172;8.620;2023-06-19T10:42:36;100963.34;;;31.19;34.25
81107;BME280;70588;53.172;8.620;2023-06-19T10:45:04;100969.59;;;31.16;34.42
81107;BME280;70588;53.172;8.620;2023-06-19T10:47:32;100971.72;;;31.10;34.43
81107;BME280;70588;53.172;8.620;2023-06-19T10:49:57;100973.84;;;31.05;33.90
81107;BME280;70588;53.172;8.620;2023-06-19T10:52:23;100984.81;;;31.01;33.95
81107;BME280;70588;53.172;8.620;2023-06-19T10:54:55;100988.28;;;31.07;33.83
81107;BME280;70588;53.172;8.620;2023-06-19T10:57:30;100981.88;;;31.06;33.59
81107;BME280;70588;53.172;8.620;2023-06-19T10:59:57;100985.00;;;30.96;33.85
81107;BME280;70588;53.172;8.620;2023-06-19T11:02:23;100989.41;;;30.97;33.98
81107;BME280;70588;53.172;8.620;2023-06-19T11:04:56;100983.88;;;31.06;33.97
81107;BME280;70588;53.172;8.620;2023-06-19T11:07:22;100975.66;;;31.00;33.84
81107;BME280;70588;53.172;8.620;2023-06-19T11:09:49;100982.22;;;31.05;33.78
81107;BME280;70588;53.172;8.620;2023-06-19T11:12:21;100987.47;;;31.15;33.45
81107;BME280;70588;53.172;8.620;2023-06-19T11:14:48;100985.97;;;31.09;33.31
81107;BME280;70588;53.172;8.620;2023-06-19T11:17:14;100983.88;;;31.06;33.26
81107;BME280;70588;53.172;8.620;2023-06-19T11:19:40;100991.38;;;31.05;33.50
81107;BME280;70588;53.172;8.620;2023-06-19T11:22:07;100987.78;;;31.05;33.69
81107;BME280;70588;53.172;8.620;2023-06-19T11:24:33;100993.03;;;31.06;33.79
81107;BME280;70588;53.172;8.620;2023-06-19T11:26:58;100987.16;;;31.08;33.56
81107;BME280;70588;53.172;8.620;2023-06-19T11:29:31;100998.78;;;31.18;33.43
81107;BME280;70588;53.172;8.620;2023-06-19T11:32:13;100998.78;;;31.27;33.48
81107;BME280;70588;53.172;8.620;2023-06-19T11:34:39;101002.72;;;31.17;33.88
81107;BME280;70588;53.172;8.620;2023-06-19T11:37:12;100998.78;;;31.27;33.33
81107;BME280;70588;53.172;8.620;2023-06-19T11:39:38;100996.81;;;31.19;33.60
81107;BME280;70588;53.172;8.620;2023-06-19T11:42:05;101005.53;;;31.17;33.58
81107;BME280;70588;53.172;8.620;2023-06-19T11:44:30;101006.66;;;31.16;33.72
81107;BME280;70588;53.172;8.620;2023-06-19T11:47:00;101016.81;;;31.21;33.76
81107;BME280;70588;53.172;8.620;2023-06-19T11:49:25;101022.06;;;31.14;33.87
81107;BME280;70588;53.172;8.620;2023-06-19T11:51:51;101017.16;;;31.11;33.89
81107;BME280;70588;53.172;8.620;2023-06-19T11:54:17;101021.91;;;31.10;34.08
81107;BME280;70588;53.172;8.620;2023-06-19T11:56:46;101034.72;;;31.11;33.99
81107;BME280;70588;53.172;8.620;2023-06-19T11:59:13;101036.34;;;31.12;33.84
81107;BME280;70588;53.172;8.620;2023-06-19T12:01:39;101038.00;;;31.13;33.83
81107;BME280;70588;53.172;8.620;2023-06-19T12:04:05;101036.84;;;31.14;33.83
81107;BME280;70588;53.172;8.620;2023-06-19T12:06:31;101040.44;;;31.15;33.80
81107;BME280;70588;53.172;8.620;2023-06-19T12:08:56;101043.22;;;31.15;33.76
81107;BME280;70588;53.172;8.620;2023-06-19T12:11:22;101042.09;;;31.16;33.53
81107;BME280;70588;53.172;8.620;2023-06-19T12:13:48;101039.63;;;31.14;33.79
81107;BME280;70588;53.172;8.620;2023-06-19T12:16:14;101041.41;;;31.10;33.82
81107;BME280;70588;53.172;8.620;2023-06-19T12:18:40;101039.63;;;31.06;33.93
81107;BME280;70588;53.172;8.620;2023-06-19T12:21:05;101044.22;;;31.01;34.14
81107;BME280;70588;53.172;8.620;2023-06-19T12:23:31;101044.84;;;30.98;33.94
81107;BME280;70588;53.172;8.620;2023-06-19T12:25:56;101039.94;;;30.95;33.92
81107;BME280;70588;53.172;8.620;2023-06-19T12:28:22;101050.25;;;30.95;34.06
81107;BME280;70588;53.172;8.620;2023-06-19T12:30:48;101050.59;;;30.93;34.10
81107;BME280;70588;53.172;8.620;2023-06-19T12:33:17;101047.63;;;30.90;34.41
81107;BME280;70588;53.172;8.620;2023-06-19T12:35:43;101054.66;;;30.87;34.55
81107;BME280;70588;53.172;8.620;2023-06-19T12:38:08;101044.44;;;30.82;34.25
81107;BME280;70588;53.172;8.620;2023-06-19T12:40:35;101048.72;;;30.80;34.32
81107;BME280;70588;53.172;8.620;2023-06-19T12:43:01;101044.13;;;30.75;34.30
81107;BME280;70588;53.172;8.620;2023-06-19T12:45:26;101050.31;;;30.72;34.23
81107;BME280;70588;53.172;8.620;2023-06-19T12:47:52;101047.03;;;30.70;34.32
81107;BME280;70588;53.172;8.620;2023-06-19T12:50:17;101033.44;;;30.69;34.28
81107;BME280;70588;53.172;8.620;2023-06-19T12:52:42;101047.03;;;30.70;34.77